Main page
METAR-TAF:

METAR-TAF

Airports :

Millington-Memphis Airport

Millington, Tennessee, United States

latitude: 35-21-24N, longitude: 089-52-13W, elevation: 321 ft

Current weather observation

The report was made 2 minutes ago, at 06:50 UTC
Calm wind
Temperature 59°F
Humidity 100%
Pressure 29.94 in. Hg
Visibility: 10 miles
Clear sky

METAR: KNQA 130650Z 00000KT 10SM CLR 15/15 A2994

Time: 01:52 (06:52 UTC)


TAF: missing

Weather observations and forecasts of more than 4000 airports (METAR and TAF reports).

The available stations are represented by yellow and red dots on the map.

Hover mouse over dot to see the name of the station.

Then click to see weather observations and forecasts.

To change the map : click on the green buttons with a black cross to zoom in, on the green button with a dash to zoom out, or on the green arrows for adjacent maps.


METAR-TAF: